Time;durP1;ratioP1;P1;durP2;ratioP2;P2;SDS_P1;SDS_P2;PMS_P1;PMS_P2;Temp;Humidity;BMP_temperature;BMP_pressure;BME280_temperature;BME280_humidity;BME280_pressure;Samples;Min_cycle;Max_cycle;Signal;HPM_P1;HPM_P2
2022/06/30 00:01:52;;;;;;;4.40;2.20;;;;;;;26.84;48.68;99089.44;4926290;29;20175;-85
2022/06/30 00:04:17;;;;;;;4.88;2.58;;;;;;;26.84;49.01;99102.81;4927474;29;20042;-86
2022/06/30 00:06:43;;;;;;;3.95;2.33;;;;;;;26.80;49.01;99094.22;4926506;29;20032;-87
2022/06/30 00:09:12;;;;;;;3.75;2.00;;;;;;;26.81;48.99;99096.78;4929605;29;20055;-87
2022/06/30 00:11:38;;;;;;;3.63;1.95;;;;;;;26.80;49.06;99105.78;4927511;29;20031;-86
2022/06/30 00:14:04;;;;;;;5.60;2.20;;;;;;;26.80;49.36;99100.44;4930327;29;20035;-87
2022/06/30 00:16:29;;;;;;;4.80;2.25;;;;;;;26.77;48.85;99095.34;4933209;29;20059;-86
2022/06/30 00:18:55;;;;;;;3.38;1.77;;;;;;;26.77;48.63;99095.34;4930735;29;20140;-85
2022/06/30 00:21:21;;;;;;;5.28;1.98;;;;;;;26.76;49.07;99082.97;4943248;29;20031;-86
2022/06/30 00:23:47;;;;;;;3.58;1.77;;;;;;;26.74;48.58;99087.63;4928131;29;20171;-87
2022/06/30 00:26:12;;;;;;;3.47;1.83;;;;;;;26.74;48.56;99084.94;4927973;29;20031;-86
2022/06/30 00:28:38;;;;;;;5.05;1.83;;;;;;;26.73;48.79;99088.59;4929027;29;20047;-86
2022/06/30 00:31:04;;;;;;;3.85;2.00;;;;;;;26.73;48.82;99088.59;4928650;29;20450;-86
2022/06/30 00:33:30;;;;;;;3.83;1.73;;;;;;;26.72;48.42;99092.25;4928437;29;20027;-86
2022/06/30 00:35:56;;;;;;;3.90;2.03;;;;;;;26.71;48.83;99095.91;4927735;29;20055;-86
2022/06/30 00:38:21;;;;;;;4.32;1.95;;;;;;;26.68;48.84;99091.69;4928852;29;20032;-86
2022/06/30 00:40:47;;;;;;;3.83;2.20;;;;;;;26.68;48.75;99086.34;4930860;29;20034;-88
2022/06/30 00:43:13;;;;;;;2.53;1.58;;;;;;;26.68;48.75;99091.69;4929004;29;20031;-85
2022/06/30 00:45:44;;;;;;;3.53;1.88;;;;;;;26.66;48.88;99090.13;4928166;29;20043;-86
2022/06/30 00:48:12;;;;;;;3.85;1.83;;;;;;;26.65;48.68;99086.63;4929781;29;20027;-89
2022/06/30 00:50:38;;;;;;;2.88;1.63;;;;;;;26.64;48.65;99094.78;4948169;29;20031;-87
2022/06/30 00:53:05;;;;;;;3.60;1.63;;;;;;;26.62;48.66;99089.56;4928577;29;20137;-86
2022/06/30 00:55:32;;;;;;;2.78;1.50;;;;;;;26.63;48.73;99093.94;4928328;29;20024;-86
2022/06/30 00:58:05;;;;;;;4.05;2.08;;;;;;;26.59;48.93;99091.69;4928628;29;20035;-87
2022/06/30 01:00:40;;;;;;;3.25;1.63;;;;;;;26.60;48.63;99088.03;4947050;29;20027;-86
2022/06/30 01:03:07;;;;;;;3.55;1.60;;;;;;;26.59;48.49;99086.34;4929839;29;20032;-86
2022/06/30 01:05:34;;;;;;;3.22;1.50;;;;;;;26.58;48.54;99100.72;4931127;29;20102;-86
2022/06/30 01:08:01;;;;;;;4.40;1.52;;;;;;;26.55;48.47;99096.47;4930324;29;20374;-87
2022/06/30 01:13:12;;;;;;;2.78;1.40;;;;;;;26.52;48.53;99097.59;4947016;29;20037;-87
2022/06/30 01:15:38;;;;;;;3.40;1.35;;;;;;;26.52;48.71;99104.75;4930409;29;20052;-87
2022/06/30 01:18:04;;;;;;;3.42;1.52;;;;;;;26.50;48.49;99091.56;4929882;29;20035;-87
2022/06/30 01:20:32;;;;;;;3.55;1.70;;;;;;;26.50;48.68;99091.56;4929955;29;20043;-87
2022/06/30 01:22:58;;;;;;;4.22;1.55;;;;;;;26.48;48.38;99090.81;4929644;29;20036;-86
2022/06/30 01:25:25;;;;;;;3.25;1.45;;;;;;;26.46;48.58;99103.50;4932448;29;20130;-89
2022/06/30 01:27:52;;;;;;;2.55;1.30;;;;;;;26.44;48.72;99093.94;4948523;29;20063;-88
2022/06/30 01:30:19;;;;;;;1.92;1.17;;;;;;;26.44;48.51;99084.06;4930399;29;20390;-87
2022/06/30 01:32:45;;;;;;;3.38;1.60;;;;;;;26.43;48.90;99090.41;4930300;29;20091;-86
2022/06/30 01:35:11;;;;;;;2.63;1.30;;;;;;;26.40;48.80;99098.72;4930509;29;20052;-87
2022/06/30 01:37:51;;;;;;;2.78;1.45;;;;;;;26.40;48.81;99104.06;4946718;29;20038;-87
2022/06/30 01:40:18;;;;;;;2.28;1.30;;;;;;;26.39;48.82;99105.88;4930574;29;20064;-86
2022/06/30 01:42:44;;;;;;;3.95;1.35;;;;;;;26.39;48.76;99097.03;4931759;29;20448;-87
2022/06/30 01:45:11;;;;;;;3.80;1.42;;;;;;;26.37;48.67;99083.78;4933878;29;20039;-86
2022/06/30 01:47:37;;;;;;;2.45;1.20;;;;;;;26.35;48.71;99084.91;4930705;29;20031;-86
2022/06/30 01:50:06;;;;;;;2.80;1.25;;;;;;;26.34;48.75;99088.56;4929572;29;20136;-86
2022/06/30 01:52:32;;;;;;;3.88;1.50;;;;;;;26.33;48.47;99085.03;4929547;29;20032;-86
2022/06/30 01:54:58;;;;;;;3.35;1.30;;;;;;;26.32;48.67;99069.13;4929173;29;20027;-86
2022/06/30 01:57:24;;;;;;;4.15;1.35;;;;;;;26.30;48.68;99058.56;4932270;29;20380;-87
2022/06/30 01:59:49;;;;;;;2.42;1.30;;;;;;;26.29;48.83;99054.19;4933474;29;20035;-86
2022/06/30 02:02:15;;;;;;;2.83;1.20;;;;;;;26.29;48.60;99048.00;4933692;29;20027;-86
2022/06/30 02:04:46;;;;;;;2.38;1.13;;;;;;;26.26;48.81;99046.47;4931691;29;20027;-88
2022/06/30 02:07:13;;;;;;;3.65;1.40;;;;;;;26.24;48.51;99046.59;4933265;29;20098;-86
2022/06/30 02:09:38;;;;;;;3.63;1.13;;;;;;;26.23;48.62;99050.25;4931272;29;20144;-88
2022/06/30 02:14:49;;;;;;;2.60;1.27;;;;;;;26.21;48.48;99052.19;4949092;29;20034;-88
2022/06/30 02:17:15;;;;;;;3.03;1.33;;;;;;;26.19;48.79;99050.66;4934208;29;20465;-85
2022/06/30 02:19:41;;;;;;;4.15;1.33;;;;;;;26.18;48.94;99065.81;4936546;29;20031;-86
2022/06/30 02:22:07;;;;;;;2.95;1.20;;;;;;;26.19;48.90;99061.34;4932100;29;20063;-86
2022/06/30 02:24:32;;;;;;;2.85;1.20;;;;;;;26.16;48.70;99062.47;4935411;29;20035;-87
2022/06/30 02:26:58;;;;;;;3.28;1.30;;;;;;;26.15;48.68;99068.78;4933572;29;20028;-87
2022/06/30 02:29:24;;;;;;;2.88;1.10;;;;;;;26.13;48.65;99076.09;4950335;29;20047;-88
2022/06/30 02:31:50;;;;;;;3.13;1.20;;;;;;;26.13;48.93;99071.59;4932880;29;20052;-87
2022/06/30 02:34:16;;;;;;;2.75;1.15;;;;;;;26.13;48.66;99074.28;4934433;29;20046;-88
2022/06/30 02:36:44;;;;;;;2.33;1.20;;;;;;;26.11;48.44;99078.88;4936691;29;20027;-90
2022/06/30 02:39:10;;;;;;;4.75;1.50;;;;;;;26.07;48.73;99081.97;4946799;28;20032;-88
2022/06/30 02:41:36;;;;;;;1.45;0.88;;;;;;;26.06;48.66;99065.13;4938136;29;20043;-86
2022/06/30 02:44:02;;;;;;;3.92;1.23;;;;;;;26.06;48.82;99053.56;4933187;29;20039;-87
2022/06/30 02:46:28;;;;;;;2.90;1.08;;;;;;;26.03;48.71;99051.16;4933623;29;20039;-87
2022/06/30 02:48:54;;;;;;;3.50;1.27;;;;;;;26.04;48.73;99066.22;4933811;29;20047;-86
2022/06/30 02:51:19;;;;;;;3.95;1.23;;;;;;;26.02;48.50;99058.34;4934510;29;20042;-86
2022/06/30 02:53:45;;;;;;;3.28;1.10;;;;;;;26.00;48.51;99069.16;4932337;29;20122;-87
2022/06/30 02:56:12;;;;;;;2.58;0.90;;;;;;;25.98;48.47;99079.16;4932968;29;20110;-87
2022/06/30 02:58:38;;;;;;;3.22;1.23;;;;;;;25.97;48.90;99082.81;4933770;29;20500;-88
2022/06/30 03:01:04;;;;;;;3.85;1.30;;;;;;;25.97;48.42;99074.78;4931745;29;20122;-86
2022/06/30 03:03:30;;;;;;;2.05;1.27;;;;;;;25.95;48.79;99063.38;4933717;29;20083;-86
2022/06/30 03:05:55;;;;;;;2.70;1.20;;;;;;;25.95;48.70;99055.34;4931009;29;20047;-87
2022/06/30 03:08:21;;;;;;;3.15;0.90;;;;;;;25.93;48.76;99060.00;4931806;29;20063;-86
2022/06/30 03:10:47;;;;;;;3.03;1.25;;;;;;;25.94;48.46;99061.69;4932673;29;20031;-86
2022/06/30 03:13:12;;;;;;;3.97;1.40;;;;;;;25.92;48.54;99062.81;4932551;29;20028;-86
2022/06/30 03:15:38;;;;;;;3.42;1.27;;;;;;;25.92;48.68;99058.31;4949157;29;20050;-86
2022/06/30 03:18:04;;;;;;;4.43;1.20;;;;;;;25.90;48.73;99062.94;4948682;29;20118;-88
2022/06/30 03:20:30;;;;;;;4.32;1.25;;;;;;;25.85;48.87;99060.69;4930563;29;20031;-87
2022/06/30 03:22:56;;;;;;;3.22;1.58;;;;;;;25.87;48.92;99063.22;4949695;29;20366;-86
2022/06/30 03:25:21;;;;;;;2.35;1.20;;;;;;;25.88;48.83;99067.56;4932202;29;20023;-87
2022/06/30 03:27:47;;;;;;;2.33;0.90;;;;;;;25.86;48.79;99066.88;4930521;29;20067;-86
2022/06/30 03:30:13;;;;;;;2.85;1.20;;;;;;;25.85;48.73;99051.78;4930998;29;20032;-87
2022/06/30 03:32:39;;;;;;;2.63;1.40;;;;;;;25.85;48.62;99054.47;4930177;29;20465;-87
2022/06/30 03:35:05;;;;;;;2.78;1.30;;;;;;;25.82;48.75;99060.09;4930278;29;20031;-87
2022/06/30 03:37:31;;;;;;;2.63;1.10;;;;;;;25.82;48.82;99062.78;4931774;29;20028;-87
2022/06/30 03:39:58;;;;;;;4.22;1.35;;;;;;;25.83;48.48;99069.81;4930412;29;20043;-90
2022/06/30 03:42:24;;;;;;;2.35;1.13;;;;;;;25.78;48.68;99072.03;4931066;29;20114;-87
2022/06/30 03:44:50;;;;;;;2.55;0.90;;;;;;;25.79;48.50;99073.72;4934227;29;20062;-88
2022/06/30 03:47:16;;;;;;;2.88;1.13;;;;;;;25.76;48.52;99074.00;4937069;29;20055;-87
2022/06/30 03:49:42;;;;;;;2.90;1.05;;;;;;;25.76;48.59;99082.03;4936070;29;20038;-86
2022/06/30 03:52:08;;;;;;;2.63;1.13;;;;;;;25.75;48.55;99086.50;4931880;29;20032;-88
2022/06/30 03:54:34;;;;;;;2.70;1.10;;;;;;;25.73;48.36;99070.59;4930519;29;20030;-88
2022/06/30 03:57:00;;;;;;;3.80;1.23;;;;;;;25.72;48.66;99068.91;4930895;29;20091;-88
2022/06/30 03:59:26;;;;;;;2.13;1.15;;;;;;;25.71;48.68;99067.22;4928582;29;20116;-89
2022/06/30 04:01:51;;;;;;;3.38;1.15;;;;;;;25.70;48.57;99070.88;4930815;29;20066;-90
2022/06/30 04:04:17;;;;;;;3.78;1.08;;;;;;;25.71;48.66;99075.25;4930610;29;20132;-88
2022/06/30 04:06:43;;;;;;;2.88;1.17;;;;;;;25.68;48.54;99072.84;4932103;29;20091;-88
2022/06/30 04:09:09;;;;;;;2.30;0.90;;;;;;;25.67;48.79;99057.78;4931139;29;20098;-86
2022/06/30 04:11:35;;;;;;;4.35;1.30;;;;;;;25.67;48.79;99064.97;4929982;29;20035;-87
2022/06/30 04:14:00;;;;;;;3.58;1.20;;;;;;;25.64;48.61;99066.06;4946409;29;20090;-86
2022/06/30 04:16:26;;;;;;;3.25;1.02;;;;;;;25.62;48.50;99068.06;4931606;29;20019;-86
2022/06/30 04:18:54;;;;;;;2.35;1.02;;;;;;;25.63;48.56;99064.41;4929740;29;20027;-87
2022/06/30 04:21:20;;;;;;;2.72;1.00;;;;;;;25.61;48.49;99077.03;4929975;29;20047;-86
2022/06/30 04:23:46;;;;;;;2.33;1.02;;;;;;;25.58;48.81;99083.47;4930666;29;20027;-88
2022/06/30 04:26:12;;;;;;;4.15;1.55;;;;;;;25.57;48.48;99080.97;4929870;29;20028;-87
2022/06/30 04:28:38;;;;;;;3.08;1.05;;;;;;;25.57;48.62;99086.31;4931965;29;20047;-89
2022/06/30 04:33:48;;;;;;;3.10;1.20;;;;;;;25.55;48.82;99086.44;4945513;29;20038;-87
2022/06/30 04:36:14;;;;;;;2.28;1.08;;;;;;;25.55;48.72;99091.78;4945162;29;20370;-85
2022/06/30 04:38:40;;;;;;;3.30;1.30;;;;;;;25.53;48.50;99090.19;4927643;29;20038;-87
2022/06/30 04:41:24;;;;;;;2.75;0.93;;;;;;;25.54;48.80;99089.22;4947176;29;20035;-90
2022/06/30 04:43:51;;;;;;;3.47;1.02;;;;;;;25.54;48.74;99086.56;4931295;29;20028;-88
2022/06/30 04:46:17;;;;;;;3.78;1.40;;;;;;;25.53;48.33;99079.50;4939166;29;20393;-89
2022/06/30 04:48:43;;;;;;;3.85;1.00;;;;;;;25.51;48.67;99082.28;4940378;29;20034;-87
2022/06/30 04:51:08;;;;;;;3.70;0.95;;;;;;;25.48;48.46;99088.75;4929572;29;20438;-87
2022/06/30 04:53:34;;;;;;;3.55;0.80;;;;;;;25.48;48.26;99082.56;4930923;29;20094;-87
2022/06/30 04:56:00;;;;;;;2.75;0.88;;;;;;;25.47;48.54;99092.41;4930253;29;20509;-87
2022/06/30 04:58:26;;;;;;;3.42;0.98;;;;;;;25.47;48.63;99084.38;4933396;29;20027;-87
2022/06/30 05:00:52;;;;;;;1.92;0.90;;;;;;;25.47;48.50;99071.03;4932086;29;20090;-86
2022/06/30 05:03:18;;;;;;;3.63;1.10;;;;;;;25.45;48.61;99078.34;4930828;29;20343;-87
2022/06/30 05:05:44;;;;;;;3.13;1.00;;;;;;;25.45;48.35;99069.47;4928526;29;20024;-87
2022/06/30 05:08:09;;;;;;;3.40;0.98;;;;;;;25.44;48.21;99065.97;4945379;29;20038;-86
2022/06/30 05:10:35;;;;;;;2.70;1.10;;;;;;;25.41;48.59;99071.56;4928710;29;20027;-87
2022/06/30 05:13:01;;;;;;;2.63;1.10;;;;;;;25.40;48.12;99085.91;4929433;29;20028;-86
2022/06/30 05:15:27;;;;;;;2.95;0.90;;;;;;;25.38;48.19;99082.53;4929467;29;20039;-87
2022/06/30 05:17:53;;;;;;;2.38;1.00;;;;;;;25.38;48.57;99076.31;4929316;29;20039;-87
2022/06/30 05:20:19;;;;;;;3.45;1.10;;;;;;;25.37;48.63;99080.81;4928885;29;20038;-86
2022/06/30 05:22:45;;;;;;;2.70;1.00;;;;;;;25.37;48.71;99090.66;4929196;29;20118;-86
2022/06/30 05:27:55;;;;;;;1.58;0.70;;;;;;;25.33;48.30;99090.06;4944543;29;20245;-88
2022/06/30 05:30:20;;;;;;;3.38;0.98;;;;;;;25.34;48.48;99091.75;4932833;29;20513;-87
2022/06/30 05:32:46;;;;;;;1.67;0.80;;;;;;;25.31;48.67;99087.53;4933550;29;20039;-86
2022/06/30 05:35:14;;;;;;;3.38;1.20;;;;;;;25.28;48.51;99090.44;4934960;29;20122;-88
2022/06/30 05:37:40;;;;;;;2.83;0.93;;;;;;;25.28;48.16;99092.28;4949342;29;20085;-90
2022/06/30 05:40:07;;;;;;;2.70;0.95;;;;;;;25.28;48.21;99094.97;4931636;29;20047;-86
2022/06/30 05:42:33;;;;;;;3.10;1.00;;;;;;;25.26;48.38;99088.88;4932987;29;20123;-88
2022/06/30 05:44:58;;;;;;;2.45;0.82;;;;;;;25.27;48.39;99086.09;4933263;29;20043;-86
2022/06/30 05:47:24;;;;;;;2.70;0.90;;;;;;;25.25;48.34;99092.53;4933323;29;20436;-88
2022/06/30 05:49:50;;;;;;;3.47;0.95;;;;;;;25.26;48.55;99099.56;4933432;29;20067;-86
2022/06/30 05:52:15;;;;;;;2.45;0.98;;;;;;;25.25;48.34;99095.22;4932709;29;20458;-85
2022/06/30 05:54:41;;;;;;;4.47;1.00;;;;;;;25.21;48.34;99097.28;4932729;29;20027;-86
2022/06/30 05:57:07;;;;;;;3.13;1.08;;;;;;;25.19;48.14;99097.41;4947381;29;20034;-88
2022/06/30 05:59:34;;;;;;;2.13;0.93;;;;;;;25.19;48.49;99097.41;4932723;29;20032;-89
2022/06/30 06:01:59;;;;;;;2.72;1.20;;;;;;;25.17;48.23;99104.72;4935121;29;20087;-87
2022/06/30 06:04:26;;;;;;;2.45;0.80;;;;;;;25.16;48.31;99108.38;4936599;29;20062;-87
2022/06/30 06:06:52;;;;;;;3.08;0.88;;;;;;;25.15;48.44;99120.03;4935910;29;20036;-86
2022/06/30 06:09:17;;;;;;;3.15;0.88;;;;;;;25.15;48.21;99125.38;4933197;29;20355;-86
2022/06/30 06:11:43;;;;;;;3.05;1.15;;;;;;;25.13;48.40;99137.97;4931357;29;20122;-88
2022/06/30 06:14:09;;;;;;;1.85;0.90;;;;;;;25.12;48.44;99138.97;4946335;29;20034;-90
2022/06/30 06:16:35;;;;;;;3.00;0.90;;;;;;;25.13;48.39;99151.34;4930507;29;20027;-88
2022/06/30 06:19:01;;;;;;;2.10;0.90;;;;;;;25.11;48.16;99155.09;4929504;29;20031;-88
2022/06/30 06:21:26;;;;;;;2.75;0.95;;;;;;;25.08;48.25;99161.53;4930452;29;20031;-89
2022/06/30 06:23:54;;;;;;;2.20;0.88;;;;;;;25.09;48.31;99157.91;4930960;29;20032;-90
2022/06/30 06:26:20;;;;;;;2.20;0.90;;;;;;;25.06;48.09;99169.69;4929969;29;20461;-88
2022/06/30 06:31:31;;;;;;;3.53;1.20;;;;;;;25.06;48.30;99166.16;4947204;29;20038;-87
2022/06/30 06:33:57;;;;;;;2.95;0.90;;;;;;;25.04;48.26;99176.97;4930945;29;20038;-88
2022/06/30 06:36:23;;;;;;;2.95;0.82;;;;;;;25.05;48.18;99183.16;4932400;29;20111;-87
2022/06/30 06:38:48;;;;;;;2.72;1.02;;;;;;;25.03;48.44;99185.13;4934553;29;20027;-88
2022/06/30 06:41:15;;;;;;;3.08;1.00;;;;;;;25.00;48.28;99190.72;4934878;29;20051;-88
2022/06/30 06:43:41;;;;;;;3.17;1.00;;;;;;;24.99;48.16;99184.50;4930225;29;20492;-88
2022/06/30 06:46:07;;;;;;;1.77;0.70;;;;;;;25.00;48.42;99188.91;4947979;29;20023;-87
2022/06/30 06:48:33;;;;;;;2.65;1.00;;;;;;;24.99;48.29;99194.34;4931171;29;20462;-85
2022/06/30 06:50:59;;;;;;;3.13;0.70;;;;;;;25.00;47.96;99193.38;4930457;29;20095;-87
2022/06/30 06:53:24;;;;;;;2.40;0.88;;;;;;;24.97;48.36;99188.28;4929667;29;20031;-88
2022/06/30 06:55:50;;;;;;;2.65;0.70;;;;;;;24.97;48.48;99194.47;4933545;29;20031;-89
2022/06/30 06:58:16;;;;;;;3.05;0.73;;;;;;;24.97;48.00;99207.81;4934110;29;20027;-86
2022/06/30 07:00:42;;;;;;;3.65;0.80;;;;;;;24.95;47.98;99204.44;4927994;29;20135;-89
2022/06/30 07:03:07;;;;;;;2.90;0.90;;;;;;;24.94;48.14;99202.75;4929182;29;20431;-88
2022/06/30 07:05:33;;;;;;;3.47;0.90;;;;;;;24.94;48.08;99208.91;4929859;29;20031;-87
2022/06/30 07:08:00;;;;;;;3.55;0.90;;;;;;;24.93;48.15;99215.22;4932115;29;20068;-87
2022/06/30 07:10:39;;;;;;;2.45;0.90;;;;;;;24.91;48.19;99219.84;4936068;29;20036;-89
2022/06/30 07:13:05;;;;;;;2.63;0.98;;;;;;;24.90;48.04;99217.31;4935832;29;20032;-87
2022/06/30 07:15:33;;;;;;;3.13;0.88;;;;;;;24.89;48.20;99208.44;4936362;29;20028;-87
2022/06/30 07:17:59;;;;;;;2.55;0.68;;;;;;;24.90;48.08;99217.31;4934623;29;20059;-86
2022/06/30 07:20:25;;;;;;;2.15;0.70;;;;;;;24.89;48.16;99212.94;4929812;29;20453;-87
2022/06/30 07:22:51;;;;;;;3.05;0.90;;;;;;;24.90;48.01;99222.66;4929361;29;20454;-87
2022/06/30 07:25:17;;;;;;;3.40;0.98;;;;;;;24.89;47.88;99221.78;4948158;29;20056;-87
2022/06/30 07:27:45;;;;;;;2.17;0.77;;;;;;;24.89;48.04;99220.97;4928218;29;20087;-87
2022/06/30 07:30:11;;;;;;;3.17;0.80;;;;;;;24.87;47.65;99222.88;4929217;29;20043;-88
2022/06/30 07:32:37;;;;;;;2.70;0.77;;;;;;;24.86;47.98;99216.72;4929935;29;20031;-88
2022/06/30 07:35:04;;;;;;;3.13;0.70;;;;;;;24.87;47.96;99229.06;4930161;29;20035;-87
2022/06/30 07:37:30;;;;;;;2.95;0.90;;;;;;;24.84;47.97;99221.31;4929815;29;20441;-87
2022/06/30 07:39:56;;;;;;;2.28;0.82;;;;;;;24.84;47.93;99223.97;4930060;29;20028;-87
2022/06/30 07:42:22;;;;;;;3.38;0.80;;;;;;;24.84;48.04;99228.47;4929266;29;20130;-87
2022/06/30 07:44:47;;;;;;;2.28;0.77;;;;;;;24.83;48.05;99232.97;4931527;29;20059;-87
2022/06/30 07:47:14;;;;;;;2.03;0.80;;;;;;;24.85;47.93;99236.38;4949761;29;20094;-88
2022/06/30 07:49:40;;;;;;;2.30;0.90;;;;;;;24.82;48.05;99236.59;4928354;29;20035;-87
2022/06/30 07:52:07;;;;;;;2.33;0.80;;;;;;;24.80;47.87;99243.88;4929145;29;20418;-87
2022/06/30 07:54:33;;;;;;;2.63;0.80;;;;;;;24.80;47.89;99246.53;4947621;29;20031;-87
2022/06/30 07:56:59;;;;;;;2.25;0.77;;;;;;;24.80;47.83;99246.53;4928566;29;20023;-88
2022/06/30 07:59:24;;;;;;;1.52;0.57;;;;;;;24.78;47.81;99252.00;4927743;29;20050;-87
2022/06/30 08:01:50;;;;;;;2.88;0.85;;;;;;;24.79;47.76;99248.34;4928136;29;20031;-88
2022/06/30 08:04:17;;;;;;;3.20;1.02;;;;;;;24.78;47.86;99256.47;4928558;29;20468;-88
2022/06/30 08:06:44;;;;;;;1.08;0.40;;;;;;;24.77;47.72;99254.78;4930427;29;20051;-86
2022/06/30 08:09:10;;;;;;;3.22;0.70;;;;;;;24.75;47.71;99262.06;4929470;29;20385;-88
2022/06/30 08:11:38;;;;;;;1.92;0.60;;;;;;;24.74;47.87;99260.38;4929412;29;20032;-88
2022/06/30 08:14:04;;;;;;;2.03;0.90;;;;;;;24.75;47.68;99272.75;4929493;29;20046;-87
2022/06/30 08:16:30;;;;;;;3.20;0.82;;;;;;;24.74;47.63;99276.38;4931991;29;20099;-90
2022/06/30 08:18:57;;;;;;;2.05;0.70;;;;;;;24.72;47.85;99268.50;4936805;29;20070;-87
2022/06/30 08:21:22;;;;;;;1.23;0.50;;;;;;;24.72;47.82;99267.63;4937543;29;20039;-88
2022/06/30 08:23:52;;;;;;;1.90;0.80;;;;;;;24.72;47.93;99273.81;4927351;29;20035;-87
2022/06/30 08:26:20;;;;;;;2.58;0.85;;;;;;;24.70;47.59;99269.59;4929106;29;20118;-89
2022/06/30 08:28:49;;;;;;;2.47;0.90;;;;;;;24.72;47.75;99278.31;4928035;29;20059;-88
2022/06/30 08:31:16;;;;;;;2.83;0.85;;;;;;;24.71;47.75;99277.47;4928808;29;20039;-88
2022/06/30 08:33:42;;;;;;;1.65;0.60;;;;;;;24.71;47.49;99276.63;4927967;29;20403;-88
2022/06/30 08:36:16;;;;;;;3.00;1.00;;;;;;;24.71;47.85;99282.81;4928527;29;20039;-88
2022/06/30 08:38:42;;;;;;;2.20;0.70;;;;;;;24.70;47.38;99282.94;4928322;29;20027;-86
2022/06/30 08:44:02;;;;;;;2.55;0.70;;;;;;;24.70;47.44;99285.59;4944909;29;20481;-89
2022/06/30 08:46:28;;;;;;;1.95;0.73;;;;;;;24.69;47.34;99283.91;4928099;29;20042;-89
2022/06/30 08:48:55;;;;;;;1.63;0.55;;;;;;;24.66;47.59;99285.81;4930298;29;20031;-89
2022/06/30 08:51:22;;;;;;;1.70;0.70;;;;;;;24.65;47.17;99289.47;4947848;29;20036;-86
2022/06/30 08:54:05;;;;;;;1.48;0.55;;;;;;;24.66;47.44;99290.31;4930582;29;20115;-86
2022/06/30 08:56:34;;;;;;;2.30;0.77;;;;;;;24.65;47.80;99286.78;4926816;29;20028;-87
2022/06/30 08:59:05;;;;;;;2.45;0.65;;;;;;;24.64;47.42;99287.78;4927452;29;20035;-88
2022/06/30 09:01:32;;;;;;;1.33;0.57;;;;;;;24.66;47.60;99296.50;4927126;29;20035;-88
2022/06/30 09:03:58;;;;;;;3.03;0.77;;;;;;;24.64;47.63;99293.09;4926710;29;20031;-87
2022/06/30 09:06:26;;;;;;;2.30;1.00;;;;;;;24.63;47.30;99299.41;4926332;29;20393;-86
2022/06/30 09:08:53;;;;;;;2.28;0.95;;;;;;;24.63;47.55;99299.41;4926858;29;20045;-86
2022/06/30 09:11:18;;;;;;;1.95;0.60;;;;;;;24.63;47.80;99299.41;4927351;29;20039;-87
2022/06/30 09:13:50;;;;;;;1.77;0.55;;;;;;;24.64;47.53;99292.25;4926792;29;20122;-87
2022/06/30 09:16:20;;;;;;;2.83;0.60;;;;;;;24.63;47.29;99302.09;4928766;29;20550;-87
2022/06/30 09:18:47;;;;;;;1.92;0.57;;;;;;;24.64;47.29;99309.13;4929846;29;20036;-86
2022/06/30 09:21:19;;;;;;;1.75;0.60;;;;;;;24.64;47.32;99301.13;4931035;29;20028;-88
2022/06/30 09:23:49;;;;;;;1.90;0.60;;;;;;;24.65;47.66;99299.31;4930807;29;20094;-86
2022/06/30 09:26:22;;;;;;;2.28;0.65;;;;;;;24.66;47.39;99307.16;4931728;29;20102;-88
2022/06/30 09:28:51;;;;;;;3.03;0.93;;;;;;;24.66;47.10;99301.81;4929366;29;20051;-86
2022/06/30 09:31:44;;;;;;;2.05;0.63;;;;;;;24.64;47.52;99309.13;4928035;29;20111;-86
2022/06/30 09:34:19;;;;;;;1.50;0.50;;;;;;;24.64;47.28;99308.25;4942861;29;20023;-86
2022/06/30 09:36:52;;;;;;;2.17;0.77;;;;;;;24.63;47.33;99304.75;4928228;29;20059;-87
2022/06/30 09:39:19;;;;;;;1.95;0.80;;;;;;;24.66;47.19;99317.00;4926171;29;20103;-87
2022/06/30 09:41:47;;;;;;;1.90;0.68;;;;;;;24.66;47.35;99309.84;4926479;29;20032;-86
2022/06/30 09:44:16;;;;;;;1.58;0.60;;;;;;;24.68;47.32;99312.38;4925432;29;20055;-86
2022/06/30 09:47:02;;;;;;;2.08;1.00;;;;;;;24.67;47.38;99308.03;4928521;29;20458;-86
2022/06/30 09:49:41;;;;;;;;;;;;;;;24.70;47.39;99314.94;4926423;29;20039;-87
2022/06/30 09:52:22;;;;;;;1.15;0.60;;;;;;;24.70;47.41;99313.13;4926448;29;20364;-87
2022/06/30 09:55:04;;;;;;;3.65;0.85;;;;;;;24.67;47.14;99313.34;4926719;29;20035;-88
2022/06/30 09:57:32;;;;;;;1.85;0.70;;;;;;;24.69;47.24;99306.06;4920724;29;20027;-87
2022/06/30 10:00:02;;;;;;;2.22;0.73;;;;;;;24.69;47.19;99314.06;4933026;29;20095;-87
2022/06/30 10:02:35;;;;;;;2.83;0.50;;;;;;;24.70;47.54;99314.94;4930087;29;20062;-88
2022/06/30 10:05:04;;;;;;;3.08;1.05;;;;;;;24.70;47.39;99317.59;4927725;29;20476;-87
2022/06/30 10:07:35;;;;;;;2.42;0.80;;;;;;;24.70;47.32;99317.59;4927471;29;20126;-86
2022/06/30 10:10:04;;;;;;;2.08;0.63;;;;;;;24.69;47.34;99321.25;4927487;29;20024;-87
2022/06/30 10:12:30;;;;;;;2.40;0.70;;;;;;;24.69;47.38;99332.75;4926986;29;20366;-87
2022/06/30 10:14:56;;;;;;;1.17;0.70;;;;;;;24.70;47.27;99322.94;4928376;29;20458;-87
2022/06/30 10:17:28;;;;;;;1.88;0.80;;;;;;;24.70;47.42;99326.47;4930697;29;20090;-88
2022/06/30 10:20:08;;;;;;;2.85;0.93;;;;;;;24.72;47.66;99337.00;4930568;29;20032;-88
2022/06/30 10:22:34;;;;;;;2.97;0.75;;;;;;;24.73;47.10;99333.34;4930800;29;20339;-86
2022/06/30 10:25:11;;;;;;;1.65;0.60;;;;;;;24.72;47.32;99329.00;4930494;29;20031;-88
2022/06/30 10:27:39;;;;;;;2.22;0.82;;;;;;;24.71;47.56;99329.97;4933640;29;20069;-88
2022/06/30 10:30:21;;;;;;;1.27;0.55;;;;;;;24.73;47.19;99336.03;4936584;29;20046;-87
2022/06/30 10:32:55;;;;;;;2.95;0.98;;;;;;;24.74;47.47;99337.75;4940829;29;20032;-85
2022/06/30 10:35:32;;;;;;;1.77;0.65;;;;;;;24.72;47.25;99343.19;4939561;29;20038;-88
2022/06/30 10:38:06;;;;;;;1.80;0.70;;;;;;;24.73;47.51;99344.03;4934132;29;20126;-86
2022/06/30 10:41:07;;;;;;;2.10;0.60;;;;;;;24.74;47.35;99345.75;4932326;29;20470;-87
2022/06/30 10:43:56;;;;;;;1.83;0.80;;;;;;;24.73;47.38;99347.56;4932692;29;20028;-89
2022/06/30 10:46:26;;;;;;;0.68;0.50;;;;;;;24.74;47.37;99348.41;4902186;29;20111;-88
2022/06/30 10:48:54;;;;;;;2.13;0.68;;;;;;;24.74;47.37;99351.09;4930387;29;20525;-87
2022/06/30 10:51:22;;;;;;;1.30;0.50;;;;;;;24.75;47.33;99347.44;4929671;29;20050;-88
2022/06/30 10:54:00;;;;;;;1.70;0.57;;;;;;;24.78;47.25;99347.19;4935048;29;20038;-86
2022/06/30 10:56:53;;;;;;;1.17;0.60;;;;;;;24.78;47.54;99352.53;4929046;29;20094;-88
2022/06/30 10:59:31;;;;;;;2.53;0.80;;;;;;;24.76;47.50;99355.34;4930419;29;20066;-88
2022/06/30 11:02:09;;;;;;;1.70;0.80;;;;;;;24.75;47.54;99352.78;4932509;29;20031;-88
2022/06/30 11:04:50;;;;;;;1.65;0.60;;;;;;;24.74;47.30;99351.91;4931830;29;20078;-89
2022/06/30 11:07:22;;;;;;;3.13;0.82;;;;;;;24.77;47.40;99353.50;4934940;29;20047;-89
2022/06/30 11:09:48;;;;;;;2.00;0.60;;;;;;;24.76;47.52;99354.47;4947197;29;20027;-89
2022/06/30 11:12:16;;;;;;;1.23;0.43;;;;;;;24.74;47.40;99359.09;4932283;29;20047;-88
2022/06/30 11:14:49;;;;;;;1.55;0.55;;;;;;;24.77;47.46;99366.84;4935391;29;20036;-88
2022/06/30 11:17:16;;;;;;;1.73;0.70;;;;;;;24.73;47.29;99354.69;4936300;29;20554;-87
2022/06/30 11:19:44;;;;;;;2.60;0.70;;;;;;;24.75;47.58;99366.94;4931889;29;20027;-85
2022/06/30 11:22:38;;;;;;;2.75;0.63;;;;;;;24.78;47.71;99373.88;4945845;29;20036;-88
2022/06/30 11:28:15;;;;;;;2.58;0.80;;;;;;;24.80;47.45;99379.94;4947659;29;20087;-88
2022/06/30 11:30:56;;;;;;;1.35;0.50;;;;;;;24.80;47.25;99377.28;4930928;29;20462;-88
2022/06/30 11:33:55;;;;;;;1.50;0.60;;;;;;;24.80;47.56;99377.28;4933080;29;20060;-87
2022/06/30 11:36:21;;;;;;;1.63;0.70;;;;;;;24.80;47.39;99375.44;4951745;29;20035;-86
2022/06/30 11:38:59;;;;;;;1.95;0.60;;;;;;;24.82;47.81;99375.38;4952327;29;20038;-87
2022/06/30 11:44:11;;;;;;;;;;;;;;;24.85;47.55;99375.13;4946254;29;20102;-86
2022/06/30 11:46:52;;;;;;;1.33;0.57;;;;;;;24.84;47.24;99384.09;4927873;29;20304;-86
2022/06/30 11:49:20;;;;;;;1.33;0.68;;;;;;;24.84;47.17;99389.44;4945997;29;20042;-86
2022/06/30 11:51:46;;;;;;;2.20;0.70;;;;;;;24.85;47.45;99380.47;4927830;29;20027;-85
2022/06/30 11:54:12;;;;;;;1.02;0.70;;;;;;;24.85;47.47;99382.28;4929112;29;20038;-88
2022/06/30 11:56:49;;;;;;;2.15;0.65;;;;;;;24.85;47.47;99385.81;4926426;29;20023;-87
2022/06/30 11:59:21;;;;;;;3.17;0.90;;;;;;;24.85;47.45;99380.47;4927670;29;20046;-86
2022/06/30 12:02:04;;;;;;;2.25;1.02;;;;;;;24.85;47.44;99384.94;4927243;29;20027;-87